createdAt,value
2018-03-01T00:00:13.054Z,-8.98
2018-03-01T00:05:11.560Z,-9.05
2018-03-01T00:10:08.781Z,-9.03
2018-03-01T00:15:06.238Z,-9.02
2018-03-01T00:20:03.606Z,-9.12
2018-03-01T00:25:05.465Z,-9.58
2018-03-01T00:30:02.633Z,-10.20
2018-03-01T00:35:00.005Z,-9.81
2018-03-01T00:39:57.610Z,-10.11
2018-03-01T00:44:54.908Z,-10.10
2018-03-01T00:49:52.274Z,-10.54
2018-03-01T00:54:50.622Z,-10.33
2018-03-01T00:59:48.738Z,-10.39
2018-03-01T01:04:46.125Z,-10.41
2018-03-01T01:09:43.437Z,-10.36
2018-03-01T01:14:41.885Z,-10.26
2018-03-01T01:19:39.289Z,-9.66
2018-03-01T01:24:39.891Z,-10.11
2018-03-01T01:29:43.250Z,-9.58
2018-03-01T01:34:41.642Z,-10.16
2018-03-01T01:39:38.897Z,-10.59
2018-03-01T01:44:36.173Z,-9.69
2018-03-01T01:49:33.447Z,-9.70
2018-03-01T01:54:33.836Z,-10.11
2018-03-01T01:59:31.177Z,-9.77
2018-03-01T02:04:31.774Z,-9.76
2018-03-01T02:09:29.016Z,-9.45
2018-03-01T02:14:27.640Z,-9.56
2018-03-01T02:19:30.722Z,-10.11
2018-03-01T02:24:33.019Z,-9.91
2018-03-01T02:29:30.245Z,-9.75
2018-03-01T02:34:28.297Z,-9.39
2018-03-01T02:39:25.554Z,-9.96
2018-03-01T02:44:22.990Z,-10.17
2018-03-01T02:49:20.207Z,-10.58
2018-03-01T02:54:18.685Z,-10.65
2018-03-01T02:59:15.852Z,-10.97
2018-03-01T03:04:13.222Z,-11.37
2018-03-01T03:09:11.644Z,-11.25
2018-03-01T03:14:09.105Z,-11.62
2018-03-01T03:19:06.297Z,-11.54
2018-03-01T03:24:03.552Z,-11.58
2018-03-01T03:29:01.032Z,-11.74
2018-03-01T03:33:58.504Z,-11.65
2018-03-01T03:38:57.521Z,-11.74
2018-03-01T03:43:57.664Z,-11.47
2018-03-01T03:48:54.942Z,-11.21
2018-03-01T03:53:53.064Z,-11.29
2018-03-01T03:58:50.230Z,-11.74
2018-03-01T04:03:47.401Z,-12.51
2018-03-01T04:08:44.586Z,-11.45
2018-03-01T04:13:42.082Z,-12.01
2018-03-01T04:18:39.622Z,-11.36
2018-03-01T04:29:24.794Z,-11.25
2018-03-01T04:34:48.385Z,-9.96
2018-03-01T04:39:49.907Z,-10.01
2018-03-01T04:44:57.889Z,-10.36
2018-03-01T04:50:22.419Z,-10.19
2018-03-01T04:55:22.962Z,-10.33
2018-03-01T05:00:20.236Z,-10.28
2018-03-01T05:05:18.379Z,-10.22
2018-03-01T05:10:15.713Z,-10.16
2018-03-01T05:15:13.020Z,-10.29
2018-03-01T05:20:10.314Z,-9.93
2018-03-01T05:25:09.386Z,-10.36
2018-03-01T05:30:06.640Z,-10.34
2018-03-01T05:35:03.748Z,-9.83
2018-03-01T05:40:01.008Z,-9.40
2018-03-01T05:44:59.341Z,-8.59
2018-03-01T05:49:56.656Z,-8.74
2018-03-01T05:54:55.031Z,-8.64
2018-03-01T05:59:52.350Z,-8.01
2018-03-01T06:04:50.716Z,-7.80
2018-03-01T06:09:47.962Z,-7.09
2018-03-01T06:14:49.085Z,-7.01
2018-03-01T06:19:46.250Z,-6.58
2018-03-01T06:24:44.781Z,-7.06
2018-03-01T06:29:42.737Z,-6.42
2018-03-01T06:34:44.806Z,-5.90
2018-03-01T06:39:42.202Z,-6.31
2018-03-01T06:44:42.989Z,-6.07
2018-03-01T06:49:41.073Z,-6.55
2018-03-01T06:54:39.097Z,-6.53
2018-03-01T06:59:36.399Z,-5.81
2018-03-01T07:04:37.865Z,-5.12
2018-03-01T07:09:35.210Z,-5.57
2018-03-01T07:14:32.663Z,-4.91
2018-03-01T07:19:30.374Z,-4.98
2018-03-01T07:24:27.866Z,-5.01
2018-03-01T07:29:25.089Z,-5.22
2018-03-01T07:34:22.775Z,-4.68
2018-03-01T07:39:20.013Z,-5.86
2018-03-01T07:44:18.481Z,-5.38
2018-03-01T07:49:15.723Z,-4.20
2018-03-01T07:54:16.758Z,-3.77
2018-03-01T07:59:14.185Z,-5.55
2018-03-01T08:04:12.462Z,-4.98
2018-03-01T08:09:10.463Z,-4.24
2018-03-01T08:14:11.226Z,-3.29
2018-03-01T08:19:08.537Z,-3.71
2018-03-01T08:24:07.322Z,-3.49
2018-03-01T08:29:04.518Z,-3.46
2018-03-01T08:34:01.872Z,-2.55
2018-03-01T08:38:59.230Z,-3.42
2018-03-01T08:43:56.653Z,-3.11
2018-03-01T08:48:53.957Z,-2.39
2018-03-01T08:53:51.219Z,-2.73
2018-03-01T08:58:48.434Z,-4.16
2018-03-01T09:03:45.689Z,-3.76
2018-03-01T09:08:44.937Z,-3.16
2018-03-01T09:13:44.163Z,-3.91
2018-03-01T09:18:41.375Z,-3.66
2018-03-01T09:23:39.649Z,-3.99
2018-03-01T09:28:36.951Z,-2.47
2018-03-01T09:33:41.085Z,-1.44
2018-03-01T09:38:38.362Z,-1.77
2018-03-01T09:43:39.031Z,-2.45
2018-03-01T09:48:36.238Z,-2.91
2018-03-01T09:53:33.507Z,-2.26
2018-03-01T09:58:30.849Z,-0.86
2018-03-01T10:03:28.189Z,-1.16
2018-03-01T10:08:25.522Z,-1.49
2018-03-01T10:13:26.483Z,0.06
2018-03-01T10:18:23.831Z,-0.39
2018-03-01T10:23:21.165Z,-0.14
2018-03-01T10:28:18.510Z,-1.27
2018-03-01T10:33:16.702Z,-0.19
2018-03-01T10:38:13.888Z,0.20
2018-03-01T10:43:11.807Z,-1.10
2018-03-01T10:48:09.086Z,-0.79
2018-03-01T10:53:11.186Z,-0.72
2018-03-01T10:58:08.398Z,0.14
2018-03-01T11:03:09.551Z,0.79
2018-03-01T11:08:06.625Z,2.02
2018-03-01T11:13:04.981Z,0.98
2018-03-01T11:18:02.366Z,0.67
2018-03-01T11:23:04.363Z,1.01
2018-03-01T11:28:01.595Z,0.85
2018-03-01T11:32:59.030Z,2.42
2018-03-01T11:37:56.301Z,1.30
2018-03-01T11:43:01.803Z,1.18
2018-03-01T11:47:59.123Z,2.64
2018-03-01T11:53:02.402Z,2.14
2018-03-01T11:57:59.687Z,5.25
2018-03-01T12:03:00.672Z,2.88
2018-03-01T12:07:58.594Z,2.99
2018-03-01T12:13:01.236Z,3.50
2018-03-01T12:18:06.426Z,3.05
2018-03-01T12:23:07.459Z,2.28
2018-03-01T12:28:05.470Z,3.95
2018-03-01T12:33:08.791Z,3.10
2018-03-01T12:38:05.943Z,1.56
2018-03-01T12:43:04.193Z,2.81
2018-03-01T12:48:01.406Z,4.13
2018-03-01T12:53:03.419Z,4.71
2018-03-01T12:58:00.733Z,3.93
2018-03-01T13:02:58.124Z,3.77
2018-03-01T13:07:55.445Z,3.31
2018-03-01T13:12:58.064Z,3.17
2018-03-01T13:17:55.491Z,3.21
2018-03-01T13:22:53.710Z,3.85
2018-03-01T13:27:51.016Z,2.91
2018-03-01T13:32:48.574Z,2.23
2018-03-01T13:37:45.886Z,3.23
2018-03-01T13:42:44.694Z,3.45
2018-03-01T13:47:41.791Z,2.30
2018-03-01T13:52:42.627Z,2.03
2018-03-01T13:57:39.927Z,2.90
2018-03-01T14:02:42.882Z,2.36
2018-03-01T14:07:56.894Z,2.00
2018-03-01T14:18:18.956Z,2.97
2018-03-01T14:23:23.398Z,2.84
2018-03-01T14:33:41.055Z,0.31
2018-03-01T14:38:38.294Z,0.64
2018-03-01T14:43:35.511Z,0.09
2018-03-01T14:48:32.934Z,-0.15
2018-03-01T14:53:30.280Z,1.14
2018-03-01T14:58:28.263Z,-0.06
2018-03-01T15:03:25.735Z,0.18
2018-03-01T15:08:23.088Z,-0.31
2018-03-01T15:13:21.490Z,-0.69
2018-03-01T15:18:18.741Z,-0.79
2018-03-01T15:23:16.154Z,-0.70
2018-03-01T15:28:13.322Z,-0.87
2018-03-01T15:33:10.611Z,-1.10
2018-03-01T15:38:07.794Z,-1.24
2018-03-01T15:43:05.098Z,-1.51
2018-03-01T15:48:02.325Z,-1.56
2018-03-01T15:52:59.746Z,-1.35
2018-03-01T15:57:57.021Z,-1.62
2018-03-01T16:02:54.431Z,-1.63
2018-03-01T16:07:51.626Z,-1.67
2018-03-01T16:12:52.622Z,-1.62
2018-03-01T16:17:51.017Z,-1.69
2018-03-01T16:22:48.355Z,-1.96
2018-03-01T16:27:45.695Z,-2.17
2018-03-01T16:32:43.247Z,-2.00
2018-03-01T16:37:40.514Z,-2.10
2018-03-01T16:42:37.871Z,-2.22
2018-03-01T16:47:35.133Z,-2.10
2018-03-01T16:52:32.958Z,-2.30
2018-03-01T16:57:31.010Z,-2.25
2018-03-01T17:02:28.505Z,-2.27
2018-03-01T17:07:26.475Z,-2.22
2018-03-01T17:12:27.380Z,-2.24
2018-03-01T17:17:24.626Z,-2.25
2018-03-01T17:22:25.260Z,-2.23
2018-03-01T17:27:22.721Z,-1.99
2018-03-01T17:32:21.732Z,-2.23
2018-03-01T17:37:22.612Z,-2.14
2018-03-01T17:42:25.266Z,-2.06
2018-03-01T17:47:23.996Z,-2.17
2018-03-01T17:52:25.200Z,-2.22
2018-03-01T17:57:22.552Z,-2.33
2018-03-01T18:02:24.194Z,-2.31
2018-03-01T18:07:21.334Z,-2.17
2018-03-01T18:12:19.775Z,-2.04
2018-03-01T18:17:18.011Z,-2.02
2018-03-01T18:22:15.522Z,-2.04
2018-03-01T18:27:13.971Z,-1.92
2018-03-01T18:32:15.063Z,-1.92
2018-03-01T18:37:12.302Z,-1.83
2018-03-01T18:42:13.263Z,-1.86
2018-03-01T18:47:11.535Z,-1.94
2018-03-01T18:52:12.014Z,-1.82
2018-03-01T18:57:10.296Z,-1.64
2018-03-01T19:02:15.352Z,-1.78
2018-03-01T19:07:13.598Z,-1.74
2018-03-01T19:12:12.045Z,-1.63
2018-03-01T19:17:09.367Z,-1.56
2018-03-01T19:22:07.634Z,-1.50
2018-03-01T19:27:05.971Z,-1.32
2018-03-01T19:32:04.491Z,-1.22
2018-03-01T19:37:01.692Z,-1.19
2018-03-01T19:42:02.870Z,-1.11
2018-03-01T19:47:00.119Z,-1.00
2018-03-01T19:52:01.235Z,-0.82
2018-03-01T19:56:58.515Z,-0.92
2018-03-01T20:01:58.871Z,-1.02
2018-03-01T20:06:56.119Z,-0.78
2018-03-01T20:11:54.728Z,-0.62
2018-03-01T20:16:53.184Z,-0.59
2018-03-01T20:21:50.422Z,-0.48
2018-03-01T20:26:47.683Z,-0.51
2018-03-01T20:31:45.964Z,-0.38
2018-03-01T20:36:43.309Z,-0.39
2018-03-01T20:41:40.551Z,-0.42
2018-03-01T20:46:38.459Z,-0.47
2018-03-01T20:51:35.743Z,-0.34
2018-03-01T20:56:32.958Z,-0.37
2018-03-01T21:01:30.266Z,-0.34
2018-03-01T21:06:27.469Z,-0.43
2018-03-01T21:11:25.614Z,-0.58
2018-03-01T21:16:22.818Z,-0.64
2018-03-01T21:21:20.150Z,-0.66
2018-03-01T21:26:18.067Z,-0.49
2018-03-01T21:31:15.623Z,-0.55
2018-03-01T21:36:12.990Z,-0.55
2018-03-01T21:41:14.052Z,-0.46
2018-03-01T21:46:14.331Z,-0.47
2018-03-01T21:51:11.862Z,-0.30
2018-03-01T21:56:09.009Z,-0.38
2018-03-01T22:01:06.347Z,-0.38
2018-03-01T22:06:03.570Z,-0.21
2018-03-01T22:11:00.989Z,-0.19
2018-03-01T22:15:59.504Z,-0.16
2018-03-01T22:20:58.021Z,-0.02
2018-03-01T22:25:55.362Z,-0.03
2018-03-01T22:30:56.221Z,0.28
2018-03-01T22:35:53.582Z,0.13
2018-03-01T22:40:51.886Z,0.13
2018-03-01T22:45:50.299Z,0.16
2018-03-01T22:50:47.613Z,0.11
2018-03-01T22:55:44.870Z,0.04
2018-03-01T23:00:53.745Z,-0.01
2018-03-01T23:05:50.981Z,-0.01
2018-03-01T23:10:49.410Z,0.00
2018-03-01T23:15:47.069Z,0.08
2018-03-01T23:20:44.666Z,0.28
2018-03-01T23:25:41.994Z,0.13
2018-03-01T23:30:42.622Z,0.08
2018-03-01T23:35:39.863Z,0.15
2018-03-01T23:40:37.385Z,0.18
2018-03-01T23:45:34.721Z,0.19
2018-03-01T23:50:35.852Z,0.12
2018-03-01T23:55:33.085Z,0.07
